Time;durP1;ratioP1;P1;durP2;ratioP2;P2;SDS_P1;SDS_P2;PMS_P1;PMS_P2;Temp;Humidity;BMP_temperature;BMP_pressure;BME280_temperature;BME280_humidity;BME280_pressure;Samples;Min_cycle;Max_cycle;Signal;HPM_P1;HPM_P2
2023/11/02 00:00:38;;;;;;;22.40;15.50;;;;;;;4.01;100.00;98203.41;272913;1270;22515;-84
2023/11/02 00:06:59;;;;;;;22.70;14.10;;;;;;;3.88;100.00;98200.70;272652;1270;22859;-82
2023/11/02 00:13:17;;;;;;;25.30;15.00;;;;;;;3.86;100.00;98195.17;272095;1270;22210;-82
2023/11/02 00:19:52;;;;;;;25.40;14.60;;;;;;;3.85;100.00;98201.19;271245;1263;22562;-82
2023/11/02 00:26:34;;;;;;;18.80;10.90;;;;;;;3.77;100.00;98193.23;273148;1270;22199;-82
2023/11/02 00:32:37;;;;;;;19.70;12.70;;;;;;;3.68;100.00;98185.52;273621;1271;22567;-82
2023/11/02 00:38:40;;;;;;;19.40;12.50;;;;;;;3.64;100.00;98175.91;273053;1270;22789;-82
2023/11/02 00:44:47;;;;;;;17.30;10.80;;;;;;;3.62;100.00;98171.12;272850;1270;22649;-82
2023/11/02 00:51:43;;;;;;;21.90;12.10;;;;;;;3.58;100.00;98153.88;271764;1270;23280;-82
2023/11/02 00:57:50;;;;;;;20.80;11.50;;;;;;;3.56;100.00;98142.52;270162;1270;23177;-82
2023/11/02 01:03:59;;;;;;;19.70;11.40;;;;;;;3.46;100.00;98142.17;271387;1265;23514;-82
2023/11/02 01:10:39;;;;;;;;;;;;;;;3.43;100.00;98131.38;272201;1270;23333;-82
2023/11/02 01:17:01;;;;;;;19.20;12.30;;;;;;;3.48;100.00;98122.69;271359;1271;22561;-83
2023/11/02 01:23:29;;;;;;;19.00;10.80;;;;;;;3.40;100.00;98120.78;273483;1271;22923;-83
2023/11/02 01:29:55;;;;;;;20.40;11.00;;;;;;;3.43;100.00;98127.80;272036;1270;23231;-82
2023/11/02 01:35:57;;;;;;;;;;;;;;;3.41;100.00;98118.19;270451;1270;23819;-81
2023/11/02 01:42:29;;;;;;;20.90;11.30;;;;;;;3.34;100.00;98113.21;272579;1270;22227;-81
2023/11/02 01:49:23;;;;;;;23.00;12.00;;;;;;;3.33;100.00;98102.89;272828;1262;22523;-82
2023/11/02 01:57:01;;;;;;;22.20;12.50;;;;;;;3.33;100.00;98094.93;271712;1271;22604;-82
2023/11/02 02:04:20;;;;;;;16.70;9.30;;;;;;;3.34;100.00;98090.48;270835;1270;22331;-82
2023/11/02 02:10:55;;;;;;;21.00;11.70;;;;;;;3.36;100.00;98088.22;271321;1271;22571;-81
2023/11/02 02:17:26;;;;;;;23.70;12.30;;;;;;;3.36;100.00;98076.23;271057;1270;22576;-82
2023/11/02 02:24:12;;;;;;;25.10;13.40;;;;;;;3.38;100.00;98073.42;271287;1270;22586;-83
2023/11/02 02:37:39;;;;;;;21.20;13.20;;;;;;;3.40;100.00;98069.23;267981;1270;98690;-83
2023/11/02 02:43:44;;;;;;;25.40;14.00;;;;;;;3.36;100.00;98065.89;270400;1274;22380;-84
2023/11/02 02:49:51;;;;;;;20.00;12.00;;;;;;;3.30;100.00;98061.86;271791;1277;23389;-82
2023/11/02 02:56:29;;;;;;;20.90;12.60;;;;;;;3.26;100.00;98053.82;272513;1276;22754;-83
2023/11/02 03:02:32;;;;;;;19.90;12.20;;;;;;;3.25;100.00;98045.30;271686;1276;25344;-83
2023/11/02 03:08:36;;;;;;;22.20;13.50;;;;;;;3.24;100.00;98037.86;271921;1274;22453;-83
2023/11/02 03:14:40;;;;;;;25.10;13.60;;;;;;;3.24;100.00;98035.84;272007;1275;23099;-83
2023/11/02 03:20:42;;;;;;;24.60;13.40;;;;;;;3.23;100.00;98027.95;271574;1274;22231;-83
2023/11/02 03:26:56;;;;;;;24.80;14.10;;;;;;;3.20;100.00;98015.35;271761;1274;23329;-83
2023/11/02 03:33:24;;;;;;;20.50;10.80;;;;;;;3.21;100.00;98011.82;269250;1274;22592;-83
2023/11/02 03:39:58;;;;;;;20.30;11.30;;;;;;;3.30;100.00;98012.02;270945;1273;23722;-83
2023/11/02 03:46:16;;;;;;;22.30;12.00;;;;;;;3.38;100.00;98009.36;272446;1275;26162;-83
2023/11/02 03:53:05;;;;;;;24.40;13.60;;;;;;;3.36;100.00;98002.04;272253;1273;23133;-83
2023/11/02 03:59:49;;;;;;;21.60;10.70;;;;;;;3.32;100.00;97987.50;272520;1275;22199;-83
2023/11/02 04:06:20;;;;;;;20.90;10.20;;;;;;;3.28;100.00;97987.18;272403;1277;22153;-83
2023/11/02 04:12:32;;;;;;;22.30;12.30;;;;;;;3.35;100.00;97980.30;270374;1273;2268478;-83
2023/11/02 04:18:34;;;;;;;25.20;12.90;;;;;;;3.37;100.00;97975.47;271340;1274;22447;-82
2023/11/02 04:24:35;;;;;;;19.20;11.20;;;;;;;3.39;100.00;97971.10;270991;1274;22852;-84
2023/11/02 04:30:37;;;;;;;17.70;9.70;;;;;;;3.38;100.00;97967.69;270725;1274;23663;-83
2023/11/02 04:36:39;;;;;;;14.90;8.90;;;;;;;3.37;100.00;97962.73;272198;1273;22237;-82
2023/11/02 04:42:41;;;;;;;18.80;10.00;;;;;;;3.37;100.00;97964.42;272130;1273;23618;-83
2023/11/02 04:48:43;;;;;;;18.40;9.90;;;;;;;3.40;100.00;97952.52;271410;1274;23416;-85
2023/11/02 04:55:06;;;;;;;19.60;10.30;;;;;;;3.39;100.00;97942.83;271312;1274;22221;-82
2023/11/02 05:01:08;;;;;;;17.70;10.70;;;;;;;3.37;100.00;97932.34;272204;1273;22342;-82
2023/11/02 05:07:35;;;;;;;15.90;8.90;;;;;;;3.39;100.00;97921.65;272335;1273;22568;-84
2023/11/02 05:14:43;;;;;;;19.20;9.30;;;;;;;3.44;100.00;97916.27;272133;1273;23615;-85
2023/11/02 05:21:07;;;;;;;15.90;9.00;;;;;;;3.48;100.00;97915.19;272168;1273;22434;-83
2023/11/02 05:27:09;;;;;;;18.30;10.00;;;;;;;3.53;100.00;97911.27;272042;1273;22589;-83
2023/11/02 05:33:10;;;;;;;20.10;11.30;;;;;;;3.56;100.00;97907.19;271454;1273;22328;-81
2023/11/02 05:39:14;;;;;;;17.70;10.80;;;;;;;3.58;100.00;97901.11;271861;1273;22229;-83
2023/11/02 05:45:21;;;;;;;16.40;9.90;;;;;;;3.61;100.00;97902.73;271069;1273;22698;-84
2023/11/02 05:51:43;;;;;;;18.10;9.60;;;;;;;3.69;100.00;97892.77;271533;1273;22582;-84
2023/11/02 05:58:06;;;;;;;14.50;9.80;;;;;;;3.77;100.00;97892.61;269431;1274;22331;-84
2023/11/02 06:04:08;;;;;;;17.30;9.50;;;;;;;3.82;100.00;97879.34;270772;1274;22277;-82
2023/11/02 06:10:10;;;;;;;15.20;8.40;;;;;;;3.87;100.00;97870.30;269758;1274;22629;-82
2023/11/02 06:16:12;;;;;;;13.70;8.30;;;;;;;3.93;100.00;97873.65;269066;1274;22755;-83
2023/11/02 06:22:14;;;;;;;14.30;7.40;;;;;;;4.05;100.00;97867.14;268914;1274;23187;-83
2023/11/02 06:28:19;;;;;;;15.80;9.00;;;;;;;4.13;100.00;97861.59;269855;1274;22646;-82
2023/11/02 06:34:21;;;;;;;11.40;7.90;;;;;;;4.18;100.00;97857.42;272178;1273;22286;-84
2023/11/02 06:40:28;;;;;;;12.40;7.60;;;;;;;4.29;100.00;97860.02;272221;1264;22905;-83
2023/11/02 06:46:37;;;;;;;13.70;8.30;;;;;;;4.43;100.00;97866.52;272353;1275;23242;-83
2023/11/02 06:52:39;;;;;;;15.70;8.10;;;;;;;4.52;100.00;97863.52;272441;1274;23422;-82
2023/11/02 06:58:42;;;;;;;15.20;9.10;;;;;;;4.62;100.00;97864.83;272303;1280;22347;-83
2023/11/02 07:04:48;;;;;;;12.20;8.80;;;;;;;4.76;100.00;97860.34;272529;1276;22229;-82
2023/11/02 07:10:51;;;;;;;19.60;11.00;;;;;;;4.94;100.00;97847.81;272273;1273;22569;-83
2023/11/02 07:16:56;;;;;;;14.60;7.60;;;;;;;5.20;100.00;97832.84;272251;1276;22223;-83
2023/11/02 07:23:02;;;;;;;14.80;7.20;;;;;;;5.70;100.00;97819.04;272415;1275;22208;-82
2023/11/02 07:29:04;;;;;;;11.60;6.80;;;;;;;6.42;100.00;97814.05;272099;1274;23610;-83
2023/11/02 07:35:08;;;;;;;13.30;6.70;;;;;;;6.97;100.00;97803.59;272549;1280;22293;-82
2023/11/02 07:41:12;;;;;;;5.90;3.70;;;;;;;7.31;100.00;97790.63;272315;1276;22251;-83
2023/11/02 07:47:14;;;;;;;3.80;2.10;;;;;;;7.73;100.00;97770.70;272185;1278;22424;-83
2023/11/02 07:53:19;;;;;;;3.10;1.40;;;;;;;8.40;100.00;97757.80;272211;1274;22432;-83
2023/11/02 07:59:43;;;;;;;;;;;;;;;9.11;100.00;97748.57;272573;1276;22448;-83
2023/11/02 08:05:45;;;;;;;2.50;1.20;;;;;;;9.69;100.00;97744.91;272700;1282;22212;-83
2023/11/02 08:11:50;;;;;;;2.70;1.40;;;;;;;10.21;100.00;97741.02;272627;1277;22204;-82
2023/11/02 08:18:07;;;;;;;2.10;1.40;;;;;;;10.60;100.00;97725.84;272606;1274;22259;-83
2023/11/02 08:24:09;;;;;;;5.50;1.60;;;;;;;11.13;100.00;97718.56;272647;1274;22183;-80
2023/11/02 08:30:11;;;;;;;5.00;1.50;;;;;;;11.52;99.09;97720.67;272186;1273;23554;-83
2023/11/02 08:36:14;;;;;;;6.40;2.10;;;;;;;11.85;99.51;97709.20;272185;1273;22403;-83
2023/11/02 08:42:16;;;;;;;3.00;1.40;;;;;;;12.23;98.24;97694.44;272521;1274;22165;-83
2023/11/02 08:48:19;;;;;;;3.00;1.60;;;;;;;12.54;96.92;97691.39;271762;1274;22621;-82
2023/11/02 08:54:47;;;;;;;2.80;1.60;;;;;;;12.77;96.56;97693.27;272112;1274;22198;-83
2023/11/02 09:00:49;;;;;;;4.30;2.10;;;;;;;13.08;96.47;97685.32;272680;1277;22211;-82
2023/11/02 09:06:52;;;;;;;3.00;1.20;;;;;;;13.59;93.53;97682.38;269604;1273;22563;-84
2023/11/02 09:12:54;;;;;;;2.10;1.20;;;;;;;14.17;88.84;97684.27;271700;1274;23034;-83
2023/11/02 09:18:58;;;;;;;4.20;1.00;;;;;;;14.72;85.99;97676.70;270790;1273;25254;-82
2023/11/02 09:25:07;;;;;;;1.90;0.90;;;;;;;14.73;85.68;97662.98;270137;1273;22531;-83
2023/11/02 09:31:12;;;;;;;6.50;1.20;;;;;;;14.50;83.18;97656.34;270836;1273;22551;-84
2023/11/02 09:37:18;;;;;;;2.30;1.50;;;;;;;13.99;82.18;97646.82;269709;1273;22457;-83
2023/11/02 09:43:20;;;;;;;5.00;1.40;;;;;;;13.76;82.88;97646.25;269810;1264;22553;-83
2023/11/02 09:49:22;;;;;;;3.60;1.40;;;;;;;14.17;79.43;97633.72;270979;1274;22988;-83
2023/11/02 09:55:26;;;;;;;3.90;1.50;;;;;;;15.14;76.21;97616.85;272153;1273;22198;-81
2023/11/02 10:01:28;;;;;;;3.30;0.80;;;;;;;16.09;76.17;97612.07;271253;1273;22200;-82
2023/11/02 10:07:31;;;;;;;4.80;1.30;;;;;;;16.73;73.59;97610.85;272412;1274;22923;-82
2023/11/02 10:13:37;;;;;;;4.70;1.10;;;;;;;17.26;74.00;97598.03;271195;1274;22550;-82
2023/11/02 10:19:39;;;;;;;3.50;1.10;;;;;;;17.99;74.10;97588.13;272024;1273;22322;-81
2023/11/02 10:25:41;;;;;;;3.20;1.60;;;;;;;18.25;71.47;97575.04;272595;1268;22236;-83
2023/11/02 10:31:44;;;;;;;3.40;1.30;;;;;;;17.99;66.70;97567.51;272370;1275;22390;-81
2023/11/02 10:37:49;;;;;;;2.60;1.30;;;;;;;17.66;65.98;97547.02;272382;1274;22318;-82
2023/11/02 10:43:57;;;;;;;2.60;1.20;;;;;;;17.45;64.72;97527.04;271854;1271;22261;-83
2023/11/02 10:49:59;;;;;;;3.50;1.70;;;;;;;17.29;64.12;97517.09;270081;1274;25439;-82
2023/11/02 10:56:06;;;;;;;2.20;1.30;;;;;;;17.19;63.67;97509.64;270733;1274;23362;-82
2023/11/02 11:02:11;;;;;;;4.50;2.60;;;;;;;17.12;62.64;97502.27;270216;1274;22294;-83
2023/11/02 11:08:13;;;;;;;4.30;2.30;;;;;;;17.17;63.99;97488.79;270209;1274;22534;-82
2023/11/02 11:14:15;;;;;;;4.50;1.30;;;;;;;17.27;62.80;97489.27;271233;1275;22213;-83
2023/11/02 11:20:17;;;;;;;3.10;1.20;;;;;;;17.36;61.15;97489.53;270159;1274;22436;-82
2023/11/02 11:26:21;;;;;;;3.90;1.10;;;;;;;17.43;59.24;97486.27;269632;1274;22601;-83
2023/11/02 11:32:38;;;;;;;4.30;1.10;;;;;;;17.45;58.96;97480.58;270692;1271;22217;-82
2023/11/02 11:38:41;;;;;;;2.40;0.80;;;;;;;17.52;58.91;97472.00;271441;1274;22400;-82
2023/11/02 11:44:43;;;;;;;2.20;0.80;;;;;;;17.58;60.84;97459.65;272413;1268;22147;-81
2023/11/02 11:50:45;;;;;;;2.00;0.90;;;;;;;17.66;60.94;97453.85;271964;1274;22463;-81
2023/11/02 11:56:57;;;;;;;1.40;0.60;;;;;;;17.67;60.44;97450.86;272771;1277;22292;-81
2023/11/02 12:03:06;;;;;;;3.70;0.60;;;;;;;17.69;60.52;97444.27;272199;1274;22208;-82
2023/11/02 12:09:10;;;;;;;1.80;0.70;;;;;;;17.70;58.78;97434.14;272436;1268;22201;-81
2023/11/02 12:15:19;;;;;;;1.10;0.70;;;;;;;17.69;59.16;97413.58;272411;1274;22325;-82
2023/11/02 12:21:22;;;;;;;2.50;1.30;;;;;;;17.70;59.37;97402.60;270671;1274;23351;-81
2023/11/02 12:27:24;;;;;;;1.90;1.10;;;;;;;17.68;60.40;97386.48;272183;1274;23372;-82
2023/11/02 12:33:27;;;;;;;2.10;1.30;;;;;;;17.54;60.34;97372.73;272003;1274;22522;-81
2023/11/02 12:39:29;;;;;;;2.40;1.30;;;;;;;17.37;61.14;97354.13;271777;1274;24233;-82
2023/11/02 12:45:32;;;;;;;3.70;1.40;;;;;;;17.27;61.42;97348.88;272564;1274;22215;-80
2023/11/02 12:51:37;;;;;;;2.70;1.10;;;;;;;17.12;61.96;97332.56;272045;1274;22602;-82
2023/11/02 12:57:39;;;;;;;3.20;1.30;;;;;;;17.07;62.39;97323.55;272195;1274;22894;-81
2023/11/02 13:04:03;;;;;;;1.70;0.90;;;;;;;17.06;62.40;97319.46;270598;1274;22592;-81
2023/11/02 13:10:06;;;;;;;2.70;1.00;;;;;;;17.02;62.37;97326.58;269636;1259;22547;-82
2023/11/02 13:16:08;;;;;;;3.50;1.10;;;;;;;16.97;62.56;97323.41;269804;1274;23635;-82
2023/11/02 13:22:11;;;;;;;3.60;1.30;;;;;;;16.93;62.74;97320.88;270447;1274;22685;-81
2023/11/02 13:28:22;;;;;;;3.60;1.90;;;;;;;16.86;62.53;97325.19;272373;1274;22271;-81
2023/11/02 13:34:24;;;;;;;3.20;1.20;;;;;;;16.77;62.72;97331.39;271150;1273;22415;-81
2023/11/02 13:40:26;;;;;;;2.90;1.60;;;;;;;16.69;63.39;97331.81;270818;1271;23717;-81
2023/11/02 13:46:29;;;;;;;3.40;1.60;;;;;;;16.57;63.88;97323.17;270394;1274;23550;-81
2023/11/02 13:52:32;;;;;;;4.40;1.50;;;;;;;16.44;64.55;97316.04;272467;1274;22183;-81
2023/11/02 13:58:35;;;;;;;2.20;1.40;;;;;;;16.28;65.09;97303.38;272704;1278;22148;-81
2023/11/02 14:04:36;;;;;;;3.40;1.50;;;;;;;16.14;65.88;97296.59;272251;1273;22453;-81
2023/11/02 14:10:38;;;;;;;5.60;2.00;;;;;;;16.01;66.22;97301.42;272392;1274;23554;-81
2023/11/02 14:16:40;;;;;;;6.20;2.10;;;;;;;15.92;66.77;97297.09;271996;1274;22575;-82
2023/11/02 14:22:42;;;;;;;7.00;2.50;;;;;;;15.85;67.39;97293.83;271308;1274;22351;-81
2023/11/02 14:28:44;;;;;;;5.90;2.50;;;;;;;15.74;67.74;97288.16;272216;1273;23050;-82
2023/11/02 14:34:53;;;;;;;3.80;1.70;;;;;;;15.72;67.57;97271.75;271916;1275;22188;-82
2023/11/02 14:40:56;;;;;;;5.80;2.10;;;;;;;15.71;67.55;97267.92;270270;1274;22559;-82
2023/11/02 14:47:23;;;;;;;6.60;3.00;;;;;;;15.60;67.63;97262.42;270436;1275;23011;-82
2023/11/02 14:53:25;;;;;;;;;;;;;;;15.39;67.84;97242.98;272209;1273;22487;-82
2023/11/02 14:59:27;;;;;;;5.80;2.30;;;;;;;15.16;67.90;97230.40;272056;1275;23300;-81
2023/11/02 15:05:34;;;;;;;4.30;1.70;;;;;;;14.91;68.25;97229.94;272417;1275;22179;-82
2023/11/02 15:11:36;;;;;;;;;;;;;;;14.67;68.64;97224.36;270560;1274;23466;-81
2023/11/02 15:17:38;;;;;;;5.10;1.90;;;;;;;14.42;69.06;97212.86;272518;1274;22272;-81
2023/11/02 15:23:40;;;;;;;4.30;1.70;;;;;;;14.19;69.46;97203.71;271933;1275;22452;-82
2023/11/02 15:29:42;;;;;;;4.60;1.90;;;;;;;13.99;69.86;97203.24;272059;1274;22191;-83
2023/11/02 15:35:52;;;;;;;3.40;1.90;;;;;;;13.81;70.19;97194.61;272072;1274;22231;-82
2023/11/02 15:42:16;;;;;;;5.10;2.80;;;;;;;13.62;70.50;97182.77;271570;1274;22547;-82
2023/11/02 15:48:18;;;;;;;7.50;2.80;;;;;;;13.43;71.03;97180.66;271579;1271;23283;-82
2023/11/02 15:54:29;;;;;;;8.00;3.10;;;;;;;13.28;71.56;97174.81;271871;1275;22675;-83
2023/11/02 16:00:32;;;;;;;9.00;3.70;;;;;;;13.15;72.11;97174.95;272164;1267;22162;-83
2023/11/02 16:06:36;;;;;;;8.10;4.10;;;;;;;13.03;72.46;97171.75;270420;1274;25094;-83
2023/11/02 16:12:38;;;;;;;10.50;5.70;;;;;;;12.92;73.05;97171.95;267792;1275;3537874;-83
2023/11/02 16:18:40;;;;;;;7.40;3.90;;;;;;;12.88;73.66;97179.61;269505;1274;22425;-83
2023/11/02 16:24:41;;;;;;;5.30;2.60;;;;;;;12.87;74.08;97176.79;270982;1273;22571;-83
2023/11/02 16:31:08;;;;;;;7.10;3.00;;;;;;;12.87;74.11;97172.70;271663;1275;23268;-84
2023/11/02 16:37:10;;;;;;;12.80;5.00;;;;;;;12.85;74.12;97163.73;271216;1275;22280;-84
2023/11/02 16:43:13;;;;;;;13.40;5.90;;;;;;;12.79;74.14;97157.46;269364;1275;22539;-85
2023/11/02 16:49:17;;;;;;;11.50;5.40;;;;;;;12.70;74.37;97160.55;269897;1275;23278;-84
2023/11/02 16:55:20;;;;;;;12.80;5.20;;;;;;;12.57;74.74;97149.90;270899;1275;22258;-83
2023/11/02 17:01:26;;;;;;;11.00;4.60;;;;;;;12.47;74.86;97148.05;269675;1274;22570;-83
2023/11/02 17:07:28;;;;;;;10.60;5.20;;;;;;;12.37;75.20;97152.21;268900;1275;23066;-83
2023/11/02 17:13:31;;;;;;;13.20;5.50;;;;;;;12.28;75.59;97149.33;269004;1274;23909;-83
2023/11/02 17:19:35;;;;;;;11.60;4.50;;;;;;;12.22;76.12;97144.14;270412;1276;22212;-83
2023/11/02 17:25:39;;;;;;;8.50;4.50;;;;;;;12.25;76.34;97132.95;271380;1274;22242;-83
2023/11/02 17:31:51;;;;;;;12.20;4.50;;;;;;;12.25;76.45;97122.98;270329;1274;22619;-84
2023/11/02 17:38:05;;;;;;;10.70;5.60;;;;;;;12.23;76.60;97108.98;271731;1277;22262;-84
2023/11/02 17:44:08;;;;;;;12.60;5.80;;;;;;;12.24;76.78;97106.84;270264;1274;22441;-85
2023/11/02 17:50:11;;;;;;;13.20;5.30;;;;;;;12.23;76.62;97100.67;272004;1275;22444;-83
2023/11/02 17:56:15;;;;;;;11.30;5.70;;;;;;;12.21;76.63;97101.13;272212;1280;22218;-83
2023/11/02 18:02:17;;;;;;;12.30;5.90;;;;;;;12.19;76.61;97097.81;272525;1275;22184;-83
2023/11/02 18:08:20;;;;;;;14.20;6.90;;;;;;;12.20;76.58;97088.32;272100;1274;23076;-84
2023/11/02 18:14:26;;;;;;;15.50;8.10;;;;;;;12.25;76.37;97080.27;271710;1274;22213;-84
2023/11/02 18:20:59;;;;;;;12.30;6.90;;;;;;;12.31;75.93;97074.20;272553;1275;22612;-83
2023/11/02 18:27:01;;;;;;;10.30;5.00;;;;;;;12.33;75.79;97058.81;272060;1275;22196;-86
2023/11/02 18:33:03;;;;;;;11.00;4.80;;;;;;;12.31;75.81;97053.70;272417;1274;22441;-83
2023/11/02 18:39:07;;;;;;;8.30;5.30;;;;;;;12.31;75.70;97055.25;272265;1277;22168;-85
2023/11/02 18:45:15;;;;;;;7.80;4.20;;;;;;;12.26;75.88;97058.91;272153;1275;22402;-84
2023/11/02 18:51:45;;;;;;;8.50;4.30;;;;;;;12.19;75.99;97057.61;272592;1277;22243;-84
2023/11/02 18:57:47;;;;;;;11.60;4.30;;;;;;;12.07;76.19;97056.83;271534;1275;22606;-83
2023/11/02 19:03:53;;;;;;;6.90;3.60;;;;;;;11.92;76.65;97051.02;270940;1275;22165;-83
2023/11/02 19:09:59;;;;;;;10.80;4.20;;;;;;;11.79;77.05;97047.44;272176;1274;22230;-84
2023/11/02 19:16:05;;;;;;;7.40;4.40;;;;;;;11.69;77.57;97047.44;272501;1278;22306;-83
2023/11/02 19:22:08;;;;;;;8.00;4.30;;;;;;;11.63;78.21;97048.98;272657;1281;22230;-84
2023/11/02 19:28:11;;;;;;;7.70;3.80;;;;;;;11.61;78.56;97049.18;272482;1275;22918;-83
2023/11/02 19:34:19;;;;;;;6.40;4.00;;;;;;;11.54;79.07;97047.22;272340;1274;23636;-83
2023/11/02 19:40:27;;;;;;;14.00;5.30;;;;;;;11.45;79.29;97039.70;271940;1276;22341;-83
2023/11/02 19:46:31;;;;;;;11.10;6.10;;;;;;;11.39;79.44;97032.70;272045;1273;23456;-84
2023/11/02 19:52:33;;;;;;;9.50;4.50;;;;;;;11.35;79.62;97031.86;272421;1280;22277;-83
2023/11/02 19:58:35;;;;;;;10.70;5.10;;;;;;;11.31;79.93;97039.86;272518;1276;23459;-83
2023/11/02 20:04:43;;;;;;;10.50;4.80;;;;;;;11.27;80.35;97044.33;272472;1279;22174;-84
2023/11/02 20:11:07;;;;;;;;;;;;;;;11.23;80.68;97033.30;272647;1277;22439;-84
2023/11/02 20:17:45;;;;;;;8.10;4.60;;;;;;;11.20;81.00;97033.54;272739;1278;23593;-83
2023/11/02 20:23:50;;;;;;;;;;;;;;;11.18;81.52;97035.70;272456;1276;22462;-84
2023/11/02 20:29:57;;;;;;;8.80;4.60;;;;;;;11.21;81.92;97024.36;272155;1274;23069;-84
2023/11/02 20:36:04;;;;;;;9.90;4.90;;;;;;;11.29;82.12;97021.11;271575;1273;22201;-84
2023/11/02 20:42:06;;;;;;;10.20;5.10;;;;;;;11.37;82.26;97019.52;272336;1274;22191;-83
2023/11/02 20:48:08;;;;;;;8.20;4.40;;;;;;;11.44;82.46;97003.39;272545;1276;22204;-85
2023/11/02 20:54:13;;;;;;;9.10;4.50;;;;;;;11.54;82.75;96996.02;272121;1274;22221;-85
2023/11/02 21:00:16;;;;;;;8.60;4.30;;;;;;;11.64;82.78;96985.45;272465;1276;23189;-85
2023/11/02 21:06:18;;;;;;;7.70;4.20;;;;;;;11.70;82.62;96973.27;272024;1274;22199;-85
2023/11/02 21:12:21;;;;;;;10.70;4.70;;;;;;;11.70;82.55;96965.73;272635;1277;22210;-84
2023/11/02 21:18:24;;;;;;;8.10;4.20;;;;;;;11.69;82.61;96957.23;272615;1276;22219;-84
2023/11/02 21:24:53;;;;;;;9.60;4.60;;;;;;;11.70;82.65;96945.86;272334;1273;22208;-84
2023/11/02 21:30:59;;;;;;;8.10;4.40;;;;;;;11.71;82.60;96946.29;271480;1273;22226;-85
2023/11/02 21:37:02;;;;;;;10.60;4.80;;;;;;;11.64;82.63;96945.75;272657;1275;22299;-84
2023/11/02 21:43:04;;;;;;;9.90;4.90;;;;;;;11.53;82.82;96945.80;272368;1273;22460;-83
2023/11/02 21:49:13;;;;;;;11.10;5.10;;;;;;;11.42;83.10;96946.39;272331;1279;22565;-84
2023/11/02 21:55:42;;;;;;;8.30;5.00;;;;;;;11.35;83.71;96948.52;272464;1275;22183;-84
2023/11/02 22:01:48;;;;;;;11.40;4.80;;;;;;;11.29;83.94;96939.27;272154;1274;22200;-83
2023/11/02 22:07:51;;;;;;;6.60;4.40;;;;;;;11.24;84.23;96933.27;272147;1274;21800;-82
2023/11/02 22:14:19;;;;;;;9.90;5.50;;;;;;;11.20;84.79;96929.86;271485;1274;22519;-83
2023/11/02 22:20:21;;;;;;;7.30;4.80;;;;;;;11.15;85.07;96937.01;271433;1274;22907;-84
2023/11/02 22:26:23;;;;;;;7.10;4.80;;;;;;;11.14;85.31;96937.90;271461;1274;22403;-83
2023/11/02 22:32:29;;;;;;;6.80;4.60;;;;;;;11.11;85.61;96926.25;271061;1274;23493;-83
2023/11/02 22:39:08;;;;;;;7.20;5.20;;;;;;;11.08;85.89;96913.33;272401;1274;22215;-83
2023/11/02 22:45:16;;;;;;;9.90;4.60;;;;;;;11.09;86.16;96905.77;270492;1273;22836;-83
2023/11/02 22:51:39;;;;;;;7.80;4.00;;;;;;;11.14;86.47;96891.20;270935;1273;22416;-84
2023/11/02 22:57:56;;;;;;;7.40;4.20;;;;;;;11.21;86.48;96883.42;272465;1274;22581;-83
2023/11/02 23:04:06;;;;;;;8.20;4.30;;;;;;;11.26;86.56;96870.69;272284;1275;22308;-83
2023/11/02 23:10:16;;;;;;;9.30;4.90;;;;;;;11.28;86.83;96858.98;272322;1274;22195;-84
2023/11/02 23:16:19;;;;;;;6.40;4.50;;;;;;;11.26;87.17;96850.05;272005;1274;23583;-83
2023/11/02 23:22:53;;;;;;;12.20;4.80;;;;;;;11.20;87.58;96843.93;271967;1274;23510;-84
2023/11/02 23:29:11;;;;;;;9.70;5.10;;;;;;;11.12;88.20;96838.77;272521;1277;22383;-83
2023/11/02 23:35:19;;;;;;;9.60;4.30;;;;;;;11.01;89.19;96833.09;272450;1274;22423;-83
2023/11/02 23:41:34;;;;;;;5.90;4.40;;;;;;;10.95;90.23;96839.48;271340;1274;22196;-83
2023/11/02 23:47:39;;;;;;;8.40;4.70;;;;;;;10.85;91.63;96827.52;272177;1274;22254;-82
2023/11/02 23:53:42;;;;;;;5.60;4.40;;;;;;;10.76;91.74;96810.39;272098;1274;23996;-84
2023/11/02 23:59:44;;;;;;;12.10;5.10;;;;;;;10.70;91.45;96791.94;272114;1267;22417;-83
